createdAt,value
2016-10-17T00:00:09.106Z,929.77
2016-10-17T00:01:09.135Z,929.77
2016-10-17T00:02:09.207Z,929.73
2016-10-17T00:03:09.279Z,929.78
2016-10-17T00:04:09.316Z,929.79
2016-10-17T00:05:09.359Z,929.79
2016-10-17T00:06:09.414Z,929.79
2016-10-17T00:07:09.483Z,929.76
2016-10-17T00:08:09.535Z,929.78
2016-10-17T00:09:09.585Z,929.75
2016-10-17T00:10:09.651Z,929.79
2016-10-17T00:11:09.702Z,929.8
2016-10-17T00:12:09.758Z,929.77
2016-10-17T00:13:09.836Z,929.81
2016-10-17T00:14:09.879Z,929.81
2016-10-17T00:15:09.920Z,929.79
2016-10-17T00:16:09.991Z,929.82
2016-10-17T00:17:10.152Z,929.84
2016-10-17T00:18:10.092Z,929.84
2016-10-17T00:19:10.150Z,929.81
2016-10-17T00:20:10.234Z,929.91
2016-10-17T00:21:10.309Z,929.92
2016-10-17T00:22:10.315Z,929.92
2016-10-17T00:23:10.384Z,929.91
2016-10-17T00:24:10.452Z,929.92
2016-10-17T00:25:10.498Z,929.93
2016-10-17T00:26:10.565Z,929.91
2016-10-17T00:27:10.648Z,929.91
2016-10-17T00:28:10.656Z,929.9
2016-10-17T00:29:10.734Z,929.92
2016-10-17T00:30:10.776Z,929.95
2016-10-17T00:31:10.821Z,929.96
2016-10-17T00:32:10.882Z,929.98
2016-10-17T00:33:10.964Z,929.96
2016-10-17T00:34:11.017Z,930.01
2016-10-17T00:35:11.073Z,930.04
2016-10-17T00:36:11.117Z,930.01
2016-10-17T00:37:11.160Z,930
2016-10-17T00:38:11.241Z,929.99
2016-10-17T00:39:11.299Z,929.99
2016-10-17T00:40:11.349Z,929.99
2016-10-17T00:41:11.413Z,930.01
2016-10-17T00:42:11.469Z,929.98
2016-10-17T00:43:11.525Z,930.03
2016-10-17T00:44:11.567Z,930.02
2016-10-17T00:45:11.643Z,930.03
2016-10-17T00:46:11.666Z,930
2016-10-17T00:47:11.746Z,930.07
2016-10-17T00:48:11.907Z,930.07
2016-10-17T00:49:11.837Z,930.07
2016-10-17T00:50:11.905Z,930.06
2016-10-17T00:51:11.973Z,930.08
2016-10-17T00:52:12.007Z,930.08
2016-10-17T00:53:12.073Z,930.06
2016-10-17T00:54:12.119Z,930.06
2016-10-17T00:55:12.175Z,930.04
2016-10-17T00:56:12.234Z,930.06
2016-10-17T00:57:12.307Z,930.07
2016-10-17T00:58:12.357Z,930.09
2016-10-17T00:59:12.415Z,930.08
2016-10-17T01:00:12.507Z,930.07
2016-10-17T01:01:12.530Z,930.08
2016-10-17T01:02:12.581Z,930.06
2016-10-17T01:03:12.626Z,930.06
2016-10-17T01:04:12.690Z,930.06
2016-10-17T01:05:12.749Z,930.04
2016-10-17T01:06:12.795Z,930.04
2016-10-17T01:07:12.867Z,930
2016-10-17T01:08:12.937Z,929.96
2016-10-17T01:09:12.990Z,929.94
2016-10-17T01:10:13.027Z,929.93
2016-10-17T01:11:13.304Z,929.92
2016-10-17T01:12:13.134Z,929.9
2016-10-17T01:13:13.197Z,929.92
2016-10-17T01:14:13.275Z,929.94
2016-10-17T01:15:13.314Z,929.95
2016-10-17T01:16:13.412Z,929.98
2016-10-17T01:17:13.445Z,929.99
2016-10-17T01:18:13.471Z,929.96
2016-10-17T01:19:13.544Z,929.96
2016-10-17T01:20:13.631Z,929.93
2016-10-17T01:21:13.673Z,930
2016-10-17T01:22:13.713Z,929.92
2016-10-17T01:23:13.758Z,929.96
2016-10-17T01:24:13.825Z,929.97
2016-10-17T01:25:13.892Z,929.97
2016-10-17T01:26:13.950Z,930.02
2016-10-17T01:27:14.045Z,930.04
2016-10-17T01:28:14.084Z,930.03
2016-10-17T01:29:14.190Z,930.05
2016-10-17T01:30:14.144Z,930.07
2016-10-17T01:31:14.208Z,930.04
2016-10-17T01:32:14.258Z,930.1
2016-10-17T01:33:14.326Z,930.06
2016-10-17T01:34:14.384Z,930.05
2016-10-17T01:35:14.456Z,930.13
2016-10-17T01:36:14.499Z,930.16
2016-10-17T01:37:14.542Z,930.19
2016-10-17T01:38:14.613Z,930.2
2016-10-17T01:39:14.664Z,930.22
2016-10-17T01:40:14.708Z,930.27
2016-10-17T01:41:14.762Z,930.23
2016-10-17T01:42:14.837Z,930.23
2016-10-17T01:43:14.887Z,930.21
2016-10-17T01:44:14.936Z,930.18
2016-10-17T01:45:15.015Z,930.2
2016-10-17T01:46:15.042Z,930.17
2016-10-17T01:47:15.125Z,930.15
2016-10-17T01:48:15.171Z,930.11
2016-10-17T01:49:15.219Z,930.1
2016-10-17T01:50:15.292Z,930.13
2016-10-17T01:51:15.347Z,930.11
2016-10-17T01:52:15.389Z,930.12
2016-10-17T01:53:15.432Z,930.15
2016-10-17T01:54:15.525Z,930.12
2016-10-17T01:55:15.544Z,930.15
2016-10-17T01:56:15.633Z,930.12
2016-10-17T01:57:15.673Z,930.14
2016-10-17T01:58:15.728Z,930.15
2016-10-17T01:59:15.782Z,930.12
2016-10-17T02:00:15.852Z,930.12
2016-10-17T02:01:15.905Z,930.17
2016-10-17T02:02:15.935Z,930.14
2016-10-17T02:03:15.996Z,930.14
2016-10-17T02:04:16.075Z,930.13
2016-10-17T02:05:16.383Z,930.11
2016-10-17T02:06:16.166Z,930.1
2016-10-17T02:07:16.273Z,930.13
2016-10-17T02:08:16.274Z,930.15
2016-10-17T02:09:16.362Z,930.13
2016-10-17T02:10:16.415Z,930.2
2016-10-17T02:11:16.443Z,930.17
2016-10-17T02:12:16.529Z,930.21
2016-10-17T02:13:16.578Z,930.17
2016-10-17T02:14:16.628Z,930.19
2016-10-17T02:15:16.697Z,930.17
2016-10-17T02:16:16.722Z,930.22
2016-10-17T02:17:16.801Z,930.22
2016-10-17T02:18:16.857Z,930.2
2016-10-17T02:19:16.897Z,930.21
2016-10-17T02:20:16.970Z,930.23
2016-10-17T02:21:16.997Z,930.19
2016-10-17T02:22:17.057Z,930.23
2016-10-17T02:23:17.133Z,930.19
2016-10-17T02:24:17.164Z,930.2
2016-10-17T02:25:17.248Z,930.16
2016-10-17T02:26:17.304Z,930.13
2016-10-17T02:27:17.359Z,930.19
2016-10-17T02:28:17.400Z,930.16
2016-10-17T02:29:17.443Z,930.18
2016-10-17T02:30:17.520Z,930.16
2016-10-17T02:31:17.566Z,930.13
2016-10-17T02:32:17.626Z,930.15
2016-10-17T02:33:17.698Z,930.16
2016-10-17T02:34:17.733Z,930.17
2016-10-17T02:35:17.804Z,930.18
2016-10-17T02:36:17.939Z,930.18
2016-10-17T02:37:17.892Z,930.17
2016-10-17T02:38:17.949Z,930.18
2016-10-17T02:39:18.006Z,930.16
2016-10-17T02:40:18.088Z,930.17
2016-10-17T02:41:18.125Z,930.16
2016-10-17T02:42:18.202Z,930.14
2016-10-17T02:43:18.241Z,930.13
2016-10-17T02:44:18.334Z,930.15
2016-10-17T02:45:18.341Z,930.12
2016-10-17T02:46:18.400Z,930.08
2016-10-17T02:47:18.462Z,930.15
2016-10-17T02:48:18.518Z,930.11
2016-10-17T02:49:18.585Z,930.09
2016-10-17T02:50:18.641Z,930.1
2016-10-17T02:51:18.669Z,930.11
2016-10-17T02:52:18.725Z,930.12
2016-10-17T02:53:18.782Z,930.08
2016-10-17T02:54:18.839Z,930.11
2016-10-17T02:55:18.929Z,930.12
2016-10-17T02:56:18.961Z,930.1
2016-10-17T02:57:19.031Z,930.11
2016-10-17T02:58:19.075Z,930.09
2016-10-17T02:59:19.173Z,930.08
2016-10-17T03:00:19.180Z,930.1
2016-10-17T03:01:19.256Z,930.07
2016-10-17T03:02:19.289Z,930.07
2016-10-17T03:03:19.352Z,930.04
2016-10-17T03:04:19.403Z,930.06
2016-10-17T03:05:19.502Z,930.03
2016-10-17T03:06:19.555Z,930.08
2016-10-17T03:07:19.667Z,930.03
2016-10-17T03:08:19.617Z,930.04
2016-10-17T03:09:19.688Z,930.03
2016-10-17T03:10:19.777Z,930.04
2016-10-17T03:11:19.787Z,930.01
2016-10-17T03:12:19.850Z,930.04
2016-10-17T03:13:19.910Z,929.99
2016-10-17T03:14:19.949Z,930.02
2016-10-17T03:15:20.008Z,929.98
2016-10-17T03:16:20.076Z,930
2016-10-17T03:17:20.142Z,929.97
2016-10-17T03:18:20.172Z,929.98
2016-10-17T03:19:20.225Z,929.95
2016-10-17T03:20:20.308Z,929.94
2016-10-17T03:21:20.345Z,929.95
2016-10-17T03:22:20.395Z,929.91
2016-10-17T03:23:20.496Z,929.93
2016-10-17T03:24:20.551Z,929.94
2016-10-17T03:25:20.574Z,929.92
2016-10-17T03:26:20.616Z,929.9
2016-10-17T03:27:20.697Z,929.89
2016-10-17T03:28:20.731Z,929.89
2016-10-17T03:29:20.808Z,929.86
2016-10-17T03:30:20.848Z,929.85
2016-10-17T03:31:20.900Z,929.84
2016-10-17T03:32:21.010Z,929.82
2016-10-17T03:33:21.002Z,929.84
2016-10-17T03:34:21.078Z,929.88
2016-10-17T03:35:21.115Z,929.87
2016-10-17T03:36:21.180Z,929.87
2016-10-17T03:37:21.234Z,929.86
2016-10-17T03:38:21.379Z,929.86
2016-10-17T03:39:21.336Z,929.82
2016-10-17T03:40:21.390Z,929.81
2016-10-17T03:41:21.447Z,929.76
2016-10-17T03:42:21.512Z,929.76
2016-10-17T03:43:21.581Z,929.71
2016-10-17T03:44:21.635Z,929.71
2016-10-17T03:45:21.695Z,929.7
2016-10-17T03:46:21.722Z,929.7
2016-10-17T03:47:21.805Z,929.72
2016-10-17T03:48:21.832Z,929.76
2016-10-17T03:49:21.898Z,929.73
2016-10-17T03:50:21.979Z,929.72
2016-10-17T03:51:22.002Z,929.69
2016-10-17T03:52:22.054Z,929.69
2016-10-17T03:53:22.109Z,929.69
2016-10-17T03:54:22.163Z,929.65
2016-10-17T03:55:22.219Z,929.66
2016-10-17T03:56:22.277Z,929.65
2016-10-17T03:57:22.345Z,929.66
2016-10-17T03:58:22.386Z,929.69
2016-10-17T03:59:22.489Z,929.69
2016-10-17T04:00:22.497Z,929.71
2016-10-17T04:01:22.550Z,929.7
2016-10-17T04:02:22.633Z,929.73
2016-10-17T04:03:22.661Z,929.73
2016-10-17T04:04:22.747Z,929.75
2016-10-17T04:05:22.784Z,929.68
2016-10-17T04:06:22.837Z,929.73
2016-10-17T04:07:22.896Z,929.73
2016-10-17T04:08:22.933Z,929.74
2016-10-17T04:09:23.018Z,929.77
2016-10-17T04:10:23.106Z,929.75
2016-10-17T04:11:23.147Z,929.76
2016-10-17T04:12:23.183Z,929.73
2016-10-17T04:13:23.238Z,929.73
2016-10-17T04:14:23.381Z,929.68
2016-10-17T04:15:23.334Z,929.64
2016-10-17T04:16:23.382Z,929.66
2016-10-17T04:17:23.460Z,929.62
2016-10-17T04:18:23.489Z,929.6
2016-10-17T04:19:23.576Z,929.57
2016-10-17T04:20:23.604Z,929.59
2016-10-17T04:21:23.664Z,929.57
2016-10-17T04:22:23.712Z,929.55
2016-10-17T04:23:23.779Z,929.54
2016-10-17T04:24:23.818Z,929.52
2016-10-17T04:25:23.897Z,929.53
2016-10-17T04:26:23.938Z,929.52
2016-10-17T04:27:23.983Z,929.54
2016-10-17T04:28:24.048Z,929.53
2016-10-17T04:29:24.107Z,929.57
2016-10-17T04:30:24.174Z,929.54
2016-10-17T04:31:24.202Z,929.61
2016-10-17T04:32:24.269Z,929.64
2016-10-17T04:33:24.324Z,929.62
2016-10-17T04:34:24.379Z,929.59
2016-10-17T04:35:24.423Z,929.6
2016-10-17T04:36:24.487Z,929.53
2016-10-17T04:37:24.558Z,929.56
2016-10-17T04:38:24.589Z,929.54
2016-10-17T04:39:24.663Z,929.54
2016-10-17T04:40:24.696Z,929.56
2016-10-17T04:41:24.751Z,929.52
2016-10-17T04:42:24.818Z,929.52
2016-10-17T04:43:24.911Z,929.51
2016-10-17T04:44:24.916Z,929.48
2016-10-17T04:45:24.992Z,929.52
2016-10-17T04:46:25.028Z,929.53
2016-10-17T04:47:25.107Z,929.54
2016-10-17T04:48:25.151Z,929.54
2016-10-17T04:49:25.199Z,929.52
2016-10-17T04:50:25.261Z,929.54
2016-10-17T04:51:25.300Z,929.53
2016-10-17T04:52:25.372Z,929.54
2016-10-17T04:53:25.442Z,929.53
2016-10-17T04:54:25.532Z,929.5
2016-10-17T04:55:25.647Z,929.44
2016-10-17T04:56:25.585Z,929.51
2016-10-17T04:57:25.639Z,929.47
2016-10-17T04:58:25.683Z,929.5
2016-10-17T04:59:25.759Z,929.51
2016-10-17T05:00:25.795Z,929.52
2016-10-17T05:01:25.849Z,929.52
2016-10-17T05:02:25.916Z,929.46
2016-10-17T05:03:25.970Z,929.54
2016-10-17T05:04:26.022Z,929.59
2016-10-17T05:05:26.068Z,929.73
2016-10-17T05:06:26.154Z,929.84
2016-10-17T05:07:26.201Z,929.92
2016-10-17T05:08:26.243Z,929.95
2016-10-17T05:09:26.289Z,929.94
2016-10-17T05:10:26.352Z,929.96
2016-10-17T05:11:26.405Z,929.94
2016-10-17T05:12:26.470Z,930
2016-10-17T05:13:26.530Z,929.98
2016-10-17T05:14:26.573Z,930.02
2016-10-17T05:15:26.615Z,930.08
2016-10-17T05:16:26.669Z,930.05
2016-10-17T05:17:26.719Z,930.15
2016-10-17T05:18:26.788Z,930.06
2016-10-17T05:19:26.863Z,930.13
2016-10-17T05:20:26.911Z,930.2
2016-10-17T05:21:26.965Z,930.22
2016-10-17T05:22:26.991Z,930.27
2016-10-17T05:23:27.058Z,930.31
2016-10-17T05:24:27.153Z,930.39
2016-10-17T05:25:27.169Z,930.42
2016-10-17T05:26:27.328Z,930.39
2016-10-17T05:27:27.290Z,930.45
2016-10-17T05:28:27.335Z,930.49
2016-10-17T05:29:27.378Z,930.48
2016-10-17T05:30:27.446Z,930.56
2016-10-17T05:31:27.490Z,930.62
2016-10-17T05:32:27.558Z,930.6
2016-10-17T05:33:27.598Z,930.56
2016-10-17T05:34:27.663Z,930.65
2016-10-17T05:35:27.696Z,930.68
2016-10-17T05:36:27.770Z,930.73
2016-10-17T05:37:27.815Z,930.74
2016-10-17T05:38:27.851Z,930.81
2016-10-17T05:39:27.906Z,930.79
2016-10-17T05:40:27.983Z,930.8
2016-10-17T05:41:28.013Z,930.86
2016-10-17T05:42:28.075Z,930.88
2016-10-17T05:43:28.131Z,930.9
2016-10-17T05:44:28.236Z,930.97
2016-10-17T05:45:28.224Z,930.98
2016-10-17T05:46:28.283Z,931.04
2016-10-17T05:47:28.341Z,931.04
2016-10-17T05:48:28.384Z,931.05
2016-10-17T05:49:28.463Z,931.02
2016-10-17T05:50:28.498Z,931.1
2016-10-17T05:51:28.592Z,931.11
2016-10-17T05:52:28.606Z,931.09
2016-10-17T05:53:28.665Z,931.15
2016-10-17T05:54:28.743Z,931.15
2016-10-17T05:55:28.772Z,931.16
2016-10-17T05:56:28.820Z,931.15
2016-10-17T05:57:28.971Z,931.11
2016-10-17T05:58:28.914Z,931.08
2016-10-17T05:59:28.982Z,931.21
2016-10-17T06:00:29.023Z,931.19
2016-10-17T06:01:29.099Z,931.21
2016-10-17T06:02:29.224Z,931.15
2016-10-17T06:03:29.202Z,931.19
2016-10-17T06:04:29.256Z,931.2
2016-10-17T06:05:29.337Z,931.21
2016-10-17T06:06:29.348Z,931.18
2016-10-17T06:07:29.399Z,931.26
2016-10-17T06:08:29.465Z,931.2
2016-10-17T06:09:29.507Z,931.26
2016-10-17T06:10:29.549Z,931.19
2016-10-17T06:11:29.611Z,931.23
2016-10-17T06:12:29.715Z,931.21
2016-10-17T06:13:29.716Z,931.25
2016-10-17T06:14:29.768Z,931.3
2016-10-17T06:15:29.831Z,931.3
2016-10-17T06:16:29.870Z,931.31
2016-10-17T06:17:29.916Z,931.23
2016-10-17T06:18:29.991Z,931.24
2016-10-17T06:19:30.027Z,931.26
2016-10-17T06:20:30.101Z,931.27
2016-10-17T06:21:30.160Z,931.29
2016-10-17T06:22:30.195Z,931.27
2016-10-17T06:23:30.230Z,931.26
2016-10-17T06:24:30.311Z,931.33
2016-10-17T06:25:30.340Z,931.29
2016-10-17T06:26:30.443Z,931.31
2016-10-17T06:27:30.442Z,931.36
2016-10-17T06:28:30.608Z,931.36
2016-10-17T06:29:30.551Z,931.31
2016-10-17T06:30:30.610Z,931.34
2016-10-17T06:31:30.663Z,931.35
2016-10-17T06:32:30.769Z,931.32
2016-10-17T06:33:30.857Z,931.32
2016-10-17T06:34:30.845Z,931.36
2016-10-17T06:35:30.888Z,931.24
2016-10-17T06:36:30.940Z,931.29
2016-10-17T06:37:30.980Z,931.23
2016-10-17T06:38:31.047Z,931.21
2016-10-17T06:39:31.085Z,931.24
2016-10-17T06:40:31.152Z,931.22
2016-10-17T06:41:31.205Z,931.26
2016-10-17T06:42:31.243Z,931.22
2016-10-17T06:43:31.295Z,931.22
2016-10-17T06:44:31.388Z,931.25
2016-10-17T06:45:31.414Z,931.23
2016-10-17T06:46:31.469Z,931.23
2016-10-17T06:47:31.495Z,931.25
2016-10-17T06:48:31.560Z,931.32
2016-10-17T06:49:31.600Z,931.32
2016-10-17T06:50:31.676Z,931.32
2016-10-17T06:51:31.729Z,931.34
2016-10-17T06:52:31.768Z,931.31
2016-10-17T06:53:31.808Z,931.37
2016-10-17T06:54:31.875Z,931.39
2016-10-17T06:55:31.913Z,931.41
2016-10-17T06:56:31.981Z,931.36
2016-10-17T06:57:32.066Z,931.38
2016-10-17T06:58:32.080Z,931.35
2016-10-17T06:59:32.147Z,931.34
2016-10-17T07:00:32.187Z,931.38
2016-10-17T07:01:32.232Z,931.4
2016-10-17T07:02:32.281Z,931.44
2016-10-17T07:03:32.349Z,931.53
2016-10-17T07:04:32.407Z,931.48
2016-10-17T07:05:32.443Z,931.56
2016-10-17T07:06:32.500Z,931.53
2016-10-17T07:07:32.563Z,931.59
2016-10-17T07:08:32.596Z,931.63
2016-10-17T07:09:32.756Z,931.58
2016-10-17T07:10:32.717Z,931.61
2016-10-17T07:11:32.759Z,931.61
2016-10-17T07:12:32.861Z,931.66
2016-10-17T07:13:32.870Z,931.55
2016-10-17T07:14:33.027Z,931.6
2016-10-17T07:15:32.977Z,931.57
2016-10-17T07:16:33.018Z,931.58
2016-10-17T07:17:33.091Z,931.58
2016-10-17T07:18:33.134Z,931.54
2016-10-17T07:19:33.203Z,931.53
2016-10-17T07:20:33.241Z,931.63
2016-10-17T07:21:33.306Z,931.54
2016-10-17T07:22:33.334Z,931.54
2016-10-17T07:23:33.387Z,931.56
2016-10-17T07:24:33.466Z,931.56
2016-10-17T07:25:33.489Z,931.61
2016-10-17T07:26:33.559Z,931.61
2016-10-17T07:27:33.598Z,931.55
2016-10-17T07:28:33.657Z,931.57
2016-10-17T07:29:33.710Z,931.56
2016-10-17T07:30:33.758Z,931.56
2016-10-17T07:31:33.816Z,931.52
2016-10-17T07:32:33.878Z,931.57
2016-10-17T07:33:33.927Z,931.5
2016-10-17T07:34:33.989Z,931.5
2016-10-17T07:35:34.026Z,931.52
2016-10-17T07:36:34.093Z,931.49
2016-10-17T07:37:34.125Z,931.46
2016-10-17T07:38:34.187Z,931.48
2016-10-17T07:39:34.227Z,931.5
2016-10-17T07:40:34.406Z,931.47
2016-10-17T07:41:34.334Z,931.48
2016-10-17T07:42:34.400Z,931.44
2016-10-17T07:43:34.437Z,931.48
2016-10-17T07:44:34.523Z,931.46
2016-10-17T07:45:34.567Z,931.48
2016-10-17T07:46:34.612Z,931.45
2016-10-17T07:47:34.646Z,931.49
2016-10-17T07:48:34.757Z,931.47
2016-10-17T07:49:34.776Z,931.47
2016-10-17T07:50:34.831Z,931.38
2016-10-17T07:51:34.858Z,931.44
2016-10-17T07:52:34.917Z,931.46
2016-10-17T07:53:34.989Z,931.47
2016-10-17T07:54:35.062Z,931.4
2016-10-17T07:55:35.093Z,931.39
2016-10-17T07:56:35.118Z,931.37
2016-10-17T07:57:35.193Z,931.4
2016-10-17T07:58:35.230Z,931.41
2016-10-17T08:00:35.356Z,931.36
2016-10-17T08:01:35.386Z,931.35
2016-10-17T08:02:35.435Z,931.33
2016-10-17T08:03:35.486Z,931.3
2016-10-17T08:04:35.539Z,931.29
2016-10-17T08:05:35.605Z,931.28
2016-10-17T08:06:35.757Z,931.29
2016-10-17T08:07:35.723Z,931.27
2016-10-17T08:08:35.764Z,931.3
2016-10-17T08:09:35.851Z,931.29
2016-10-17T08:10:35.872Z,931.33
2016-10-17T08:11:36.014Z,931.31
2016-10-17T08:12:35.975Z,931.32
2016-10-17T08:13:36.025Z,931.31
2016-10-17T08:14:36.078Z,931.32
2016-10-17T08:15:36.171Z,931.32
2016-10-17T08:16:36.173Z,931.3
2016-10-17T08:17:36.275Z,931.28
2016-10-17T08:18:36.293Z,931.26
2016-10-17T08:19:36.360Z,931.3
2016-10-17T08:20:36.386Z,931.29
2016-10-17T08:21:36.436Z,931.27
2016-10-17T08:22:36.500Z,931.26
2016-10-17T08:23:36.547Z,931.17
2016-10-17T08:24:36.641Z,931.2
2016-10-17T08:25:36.662Z,931.21
2016-10-17T08:26:36.733Z,931.19
2016-10-17T08:27:36.750Z,931.15
2016-10-17T08:28:36.808Z,931.12
2016-10-17T08:29:36.879Z,931.07
2016-10-17T08:30:36.919Z,931.1
2016-10-17T08:31:36.973Z,931.11
2016-10-17T08:32:37.041Z,931.05
2016-10-17T08:33:37.083Z,931.07
2016-10-17T08:34:37.122Z,931.05
2016-10-17T08:35:37.203Z,931.07
2016-10-17T08:36:37.238Z,931.01
2016-10-17T08:37:37.398Z,931.08
2016-10-17T08:38:37.331Z,931.1
2016-10-17T08:39:37.411Z,931.05
2016-10-17T08:40:37.452Z,931.1
2016-10-17T08:41:37.506Z,931.09
2016-10-17T08:42:37.599Z,931.09
2016-10-17T08:43:37.606Z,931.06
2016-10-17T08:44:37.657Z,931.08
2016-10-17T08:45:37.756Z,931.06
2016-10-17T08:46:37.751Z,931.09
2016-10-17T08:47:37.811Z,931.04
2016-10-17T08:48:37.873Z,931
2016-10-17T08:49:37.925Z,931.01
2016-10-17T08:50:37.972Z,930.98
2016-10-17T08:51:38.030Z,930.95
2016-10-17T08:52:38.067Z,930.91
2016-10-17T08:53:38.134Z,930.88
2016-10-17T08:54:38.223Z,930.84
2016-10-17T08:55:38.277Z,930.8
2016-10-17T08:56:38.337Z,930.81
2016-10-17T08:57:38.348Z,930.83
2016-10-17T08:58:38.411Z,930.8
2016-10-17T08:59:38.446Z,930.83
2016-10-17T09:00:38.496Z,930.83
2016-10-17T09:01:38.541Z,930.87
2016-10-17T09:02:38.604Z,930.82
2016-10-17T09:03:38.674Z,930.81
2016-10-17T09:04:38.699Z,930.81
2016-10-17T09:05:38.812Z,930.83
2016-10-17T09:06:38.816Z,930.83
2016-10-17T09:07:38.895Z,930.85
2016-10-17T09:08:38.914Z,930.74
2016-10-17T09:09:38.971Z,930.73
2016-10-17T09:10:39.044Z,930.72
2016-10-17T09:11:39.094Z,930.67
2016-10-17T09:12:39.162Z,930.62
2016-10-17T09:13:39.304Z,930.58
2016-10-17T09:14:39.278Z,930.56
2016-10-17T09:15:39.283Z,930.53
2016-10-17T09:16:39.343Z,930.54
2016-10-17T09:17:39.404Z,930.57
2016-10-17T09:18:39.458Z,930.52
2016-10-17T09:19:39.514Z,930.57
2016-10-17T09:20:39.594Z,930.59
2016-10-17T09:21:39.637Z,930.56
2016-10-17T09:22:39.669Z,930.58
2016-10-17T09:23:39.729Z,930.58
2016-10-17T09:24:39.783Z,930.55
2016-10-17T09:25:39.829Z,930.56
2016-10-17T09:26:39.888Z,930.58
2016-10-17T09:27:39.951Z,930.57
2016-10-17T09:28:40.003Z,930.55
2016-10-17T09:29:40.024Z,930.56
2016-10-17T09:30:40.123Z,930.56
2016-10-17T09:31:40.128Z,930.55
2016-10-17T09:32:40.233Z,930.55
2016-10-17T09:33:40.268Z,930.54
2016-10-17T09:34:40.296Z,930.51
2016-10-17T09:35:40.374Z,930.49
2016-10-17T09:36:40.429Z,930.52
2016-10-17T09:37:40.482Z,930.41
2016-10-17T09:38:40.514Z,930.44
2016-10-17T09:39:40.572Z,930.45
2016-10-17T09:40:40.616Z,930.37
2016-10-17T09:41:40.663Z,930.37
2016-10-17T09:42:40.732Z,930.36
2016-10-17T09:43:40.802Z,930.35
2016-10-17T09:44:40.859Z,930.39
2016-10-17T09:45:40.893Z,930.37
2016-10-17T09:46:40.934Z,930.36
2016-10-17T09:47:41.018Z,930.37
2016-10-17T09:48:41.066Z,930.36
2016-10-17T09:49:41.210Z,930.38
2016-10-17T09:50:41.157Z,930.35
2016-10-17T09:51:41.202Z,930.39
2016-10-17T09:52:41.259Z,930.36
2016-10-17T09:53:41.354Z,930.38
2016-10-17T09:54:41.519Z,930.39
2016-10-17T09:55:41.419Z,930.36
2016-10-17T09:56:41.501Z,930.36
2016-10-17T09:57:41.542Z,930.34
2016-10-17T09:58:41.585Z,930.35
2016-10-17T09:59:41.660Z,930.33
2016-10-17T10:00:41.708Z,930.34
2016-10-17T10:01:41.747Z,930.33
2016-10-17T10:02:41.820Z,930.35
2016-10-17T10:03:41.889Z,930.34
2016-10-17T10:04:41.905Z,930.37
2016-10-17T10:05:41.981Z,930.36
2016-10-17T10:06:42.016Z,930.34
2016-10-17T10:07:42.100Z,930.34
2016-10-17T10:08:42.128Z,930.32
2016-10-17T10:09:42.386Z,930.32
2016-10-17T10:10:42.248Z,930.31
2016-10-17T10:11:42.294Z,930.32
2016-10-17T10:12:42.565Z,930.36
2016-10-17T10:13:42.413Z,930.41
2016-10-17T10:14:42.463Z,930.42
2016-10-17T10:15:42.523Z,930.43
2016-10-17T10:16:42.589Z,930.38
2016-10-17T10:17:42.608Z,930.36
2016-10-17T10:18:42.695Z,930.4
2016-10-17T10:19:42.741Z,930.35
2016-10-17T10:20:42.773Z,930.41
2016-10-17T10:21:42.864Z,930.42
2016-10-17T10:22:42.890Z,930.37
2016-10-17T10:23:42.945Z,930.41
2016-10-17T10:24:43.011Z,930.38
2016-10-17T10:25:43.171Z,930.4
2016-10-17T10:26:43.100Z,930.35
2016-10-17T10:27:43.163Z,930.39
2016-10-17T10:28:43.222Z,930.32
2016-10-17T10:29:43.273Z,930.34
2016-10-17T10:30:43.445Z,930.3
2016-10-17T10:31:43.391Z,930.29
2016-10-17T10:32:43.454Z,930.34
2016-10-17T10:33:43.542Z,930.34
2016-10-17T10:34:43.551Z,930.32
2016-10-17T10:35:43.604Z,930.32
2016-10-17T10:36:43.678Z,930.29
2016-10-17T10:37:43.711Z,930.24
2016-10-17T10:38:43.786Z,930.26
2016-10-17T10:39:43.853Z,930.3
2016-10-17T10:40:43.889Z,930.31
2016-10-17T10:41:44.009Z,930.33
2016-10-17T10:42:43.990Z,930.3
2016-10-17T10:43:44.055Z,930.29
2016-10-17T10:44:44.103Z,930.27
2016-10-17T10:45:44.166Z,930.25
2016-10-17T10:46:44.213Z,930.25
2016-10-17T10:47:44.279Z,930.19
2016-10-17T10:48:44.326Z,930.22
2016-10-17T10:49:44.389Z,930.22
2016-10-17T10:50:44.425Z,930.17
2016-10-17T10:51:44.495Z,930.21
2016-10-17T10:52:44.562Z,930.15
2016-10-17T10:53:44.622Z,930.19
2016-10-17T10:54:44.643Z,930.2
2016-10-17T10:55:44.701Z,930.19
2016-10-17T10:56:44.767Z,930.2
2016-10-17T10:57:44.822Z,930.17
2016-10-17T10:58:44.882Z,930.14
2016-10-17T10:59:44.929Z,930.16
2016-10-17T11:00:45.008Z,930.18
2016-10-17T11:01:45.158Z,930.15
2016-10-17T11:02:45.112Z,930.16
2016-10-17T11:03:45.181Z,930.16
2016-10-17T11:04:45.213Z,930.09
2016-10-17T11:05:45.252Z,930.13
2016-10-17T11:06:45.436Z,930.07
2016-10-17T11:07:45.363Z,930.08
2016-10-17T11:08:45.445Z,930.06
2016-10-17T11:09:45.487Z,930.04
2016-10-17T11:10:45.531Z,930.03
2016-10-17T11:11:45.585Z,930.01
2016-10-17T11:12:45.694Z,929.99
2016-10-17T11:13:45.708Z,929.99
2016-10-17T11:14:45.751Z,929.99
2016-10-17T11:15:45.803Z,929.99
2016-10-17T11:16:45.860Z,929.99
2016-10-17T11:17:45.926Z,930.02
2016-10-17T11:18:45.978Z,929.98
2016-10-17T11:19:46.059Z,929.99
2016-10-17T11:20:46.080Z,929.94
2016-10-17T11:21:46.165Z,929.97
2016-10-17T11:22:46.225Z,929.94
2016-10-17T11:23:46.256Z,929.95
2016-10-17T11:24:46.306Z,929.92
2016-10-17T11:25:46.393Z,929.93
2016-10-17T11:26:46.435Z,929.95
2016-10-17T11:27:46.485Z,929.96
2016-10-17T11:28:46.545Z,929.91
2016-10-17T11:29:46.573Z,929.96
2016-10-17T11:30:46.856Z,929.99
2016-10-17T11:31:46.696Z,929.97
2016-10-17T11:32:46.768Z,929.97
2016-10-17T11:33:46.821Z,930
2016-10-17T11:34:46.851Z,929.95
2016-10-17T11:35:46.915Z,929.97
2016-10-17T11:36:46.969Z,929.93
2016-10-17T11:37:47.124Z,929.97
2016-10-17T11:38:47.114Z,929.93
2016-10-17T11:39:47.127Z,929.95
2016-10-17T11:40:47.188Z,929.93
2016-10-17T11:41:47.251Z,929.91
2016-10-17T11:42:47.304Z,929.85
2016-10-17T11:43:47.373Z,929.89
2016-10-17T11:44:47.412Z,929.85
2016-10-17T11:45:47.517Z,929.87
2016-10-17T11:46:47.520Z,929.82
2016-10-17T11:47:47.570Z,929.84
2016-10-17T11:48:47.647Z,929.86
2016-10-17T11:49:47.693Z,929.81
2016-10-17T11:50:47.756Z,929.84
2016-10-17T11:51:47.853Z,929.85
2016-10-17T11:52:47.877Z,929.88
2016-10-17T11:53:47.917Z,929.88
2016-10-17T11:54:47.984Z,929.9
2016-10-17T11:55:48.063Z,929.95
2016-10-17T11:56:48.071Z,929.89
2016-10-17T11:57:48.157Z,929.97
2016-10-17T11:58:48.213Z,930
2016-10-17T11:59:48.237Z,930.03
2016-10-17T12:00:48.309Z,930.01
2016-10-17T12:01:48.373Z,930.02
2016-10-17T12:02:48.437Z,930.04
2016-10-17T12:03:48.480Z,930.03
2016-10-17T12:04:48.526Z,930.03
2016-10-17T12:05:48.590Z,930.01
2016-10-17T12:06:48.626Z,929.99
2016-10-17T12:07:48.683Z,929.96
2016-10-17T12:08:48.853Z,929.94
2016-10-17T12:09:48.827Z,929.91
2016-10-17T12:10:48.854Z,929.94
2016-10-17T12:11:48.928Z,929.91
2016-10-17T12:12:48.986Z,929.91
2016-10-17T12:13:49.028Z,929.9
2016-10-17T12:14:49.077Z,929.96
2016-10-17T12:15:49.135Z,929.94
2016-10-17T12:16:49.224Z,929.93
2016-10-17T12:17:49.268Z,929.89
2016-10-17T12:18:49.338Z,929.87
2016-10-17T12:19:49.390Z,929.79
2016-10-17T12:20:49.425Z,929.79
2016-10-17T12:21:49.495Z,929.8
2016-10-17T12:22:49.579Z,929.75
2016-10-17T12:23:49.634Z,929.75
2016-10-17T12:24:49.638Z,929.8
2016-10-17T12:25:49.720Z,929.78
2016-10-17T12:26:49.754Z,929.75
2016-10-17T12:27:49.878Z,929.76
2016-10-17T12:28:49.916Z,929.69
2016-10-17T12:29:49.985Z,929.67
2016-10-17T12:30:49.993Z,929.68
2016-10-17T12:31:50.040Z,929.62
2016-10-17T12:32:50.109Z,929.62